sensor_id;sensor_type;location;lat;lon;timestamp;P1;durP1;ratioP1;P2;durP2;ratioP2
2035;SDS011;23642;42.658;23.350;2022-12-29T00:01:23;113.27;;;103.43;;
2035;SDS011;23642;42.658;23.350;2022-12-29T00:03:49;113.67;;;102.87;;
2035;SDS011;23642;42.658;23.350;2022-12-29T00:06:16;114.00;;;103.77;;
2035;SDS011;23642;42.658;23.350;2022-12-29T00:08:43;111.13;;;101.57;;
2035;SDS011;23642;42.658;23.350;2022-12-29T00:11:11;113.67;;;103.20;;
2035;SDS011;23642;42.658;23.350;2022-12-29T00:13:41;109.80;;;100.60;;
2035;SDS011;23642;42.658;23.350;2022-12-29T00:16:25;110.47;;;101.37;;
2035;SDS011;23642;42.658;23.350;2022-12-29T00:18:53;109.27;;;99.87;;
2035;SDS011;23642;42.658;23.350;2022-12-29T00:21:20;108.63;;;99.63;;
2035;SDS011;23642;42.658;23.350;2022-12-29T00:24:06;109.87;;;100.37;;
2035;SDS011;23642;42.658;23.350;2022-12-29T00:26:53;111.63;;;102.27;;
2035;SDS011;23642;42.658;23.350;2022-12-29T00:29:42;106.07;;;97.47;;
2035;SDS011;23642;42.658;23.350;2022-12-29T00:32:26;108.03;;;99.00;;
2035;SDS011;23642;42.658;23.350;2022-12-29T00:35:12;108.70;;;99.70;;
2035;SDS011;23642;42.658;23.350;2022-12-29T00:37:41;105.93;;;96.97;;
2035;SDS011;23642;42.658;23.350;2022-12-29T00:40:26;104.87;;;96.63;;
2035;SDS011;23642;42.658;23.350;2022-12-29T00:43:10;101.60;;;93.37;;
2035;SDS011;23642;42.658;23.350;2022-12-29T00:45:55;103.77;;;95.67;;
2035;SDS011;23642;42.658;23.350;2022-12-29T00:48:22;105.30;;;96.77;;
2035;SDS011;23642;42.658;23.350;2022-12-29T00:51:03;105.53;;;96.80;;
2035;SDS011;23642;42.658;23.350;2022-12-29T00:53:29;105.60;;;96.80;;
2035;SDS011;23642;42.658;23.350;2022-12-29T00:55:56;109.07;;;99.57;;
2035;SDS011;23642;42.658;23.350;2022-12-29T00:58:23;107.40;;;98.53;;
2035;SDS011;23642;42.658;23.350;2022-12-29T01:00:50;108.87;;;100.03;;
2035;SDS011;23642;42.658;23.350;2022-12-29T01:03:18;107.07;;;98.60;;
2035;SDS011;23642;42.658;23.350;2022-12-29T01:05:44;102.83;;;94.10;;
2035;SDS011;23642;42.658;23.350;2022-12-29T01:08:11;104.83;;;96.13;;
2035;SDS011;23642;42.658;23.350;2022-12-29T01:10:38;102.20;;;93.93;;
2035;SDS011;23642;42.658;23.350;2022-12-29T01:13:04;104.10;;;95.43;;
2035;SDS011;23642;42.658;23.350;2022-12-29T01:15:30;100.00;;;92.20;;
2035;SDS011;23642;42.658;23.350;2022-12-29T01:17:57;99.40;;;91.60;;
2035;SDS011;23642;42.658;23.350;2022-12-29T01:20:25;98.63;;;90.47;;
2035;SDS011;23642;42.658;23.350;2022-12-29T01:22:53;100.77;;;92.90;;
2035;SDS011;23642;42.658;23.350;2022-12-29T01:25:20;97.77;;;90.03;;
2035;SDS011;23642;42.658;23.350;2022-12-29T01:27:47;98.20;;;90.70;;
2035;SDS011;23642;42.658;23.350;2022-12-29T01:30:14;100.33;;;92.27;;
2035;SDS011;23642;42.658;23.350;2022-12-29T01:32:40;97.87;;;90.50;;
2035;SDS011;23642;42.658;23.350;2022-12-29T01:35:07;99.43;;;91.40;;
2035;SDS011;23642;42.658;23.350;2022-12-29T01:37:37;98.70;;;91.10;;
2035;SDS011;23642;42.658;23.350;2022-12-29T01:40:04;98.27;;;90.47;;
2035;SDS011;23642;42.658;23.350;2022-12-29T01:42:31;99.27;;;91.27;;
2035;SDS011;23642;42.658;23.350;2022-12-29T01:44:58;100.37;;;92.37;;
2035;SDS011;23642;42.658;23.350;2022-12-29T01:47:30;99.90;;;91.50;;
2035;SDS011;23642;42.658;23.350;2022-12-29T01:50:02;96.43;;;88.70;;
2035;SDS011;23642;42.658;23.350;2022-12-29T01:52:33;99.10;;;91.07;;
2035;SDS011;23642;42.658;23.350;2022-12-29T01:55:03;96.77;;;88.47;;
2035;SDS011;23642;42.658;23.350;2022-12-29T01:57:33;95.73;;;88.33;;
2035;SDS011;23642;42.658;23.350;2022-12-29T02:00:03;95.27;;;87.80;;
2035;SDS011;23642;42.658;23.350;2022-12-29T02:02:33;95.33;;;88.13;;
2035;SDS011;23642;42.658;23.350;2022-12-29T02:05:01;95.83;;;88.20;;
2035;SDS011;23642;42.658;23.350;2022-12-29T02:07:32;98.53;;;91.03;;
2035;SDS011;23642;42.658;23.350;2022-12-29T02:09:58;96.37;;;89.00;;
2035;SDS011;23642;42.658;23.350;2022-12-29T02:12:29;97.00;;;89.57;;
2035;SDS011;23642;42.658;23.350;2022-12-29T02:14:57;98.13;;;90.77;;
2035;SDS011;23642;42.658;23.350;2022-12-29T02:17:31;96.70;;;89.50;;
2035;SDS011;23642;42.658;23.350;2022-12-29T02:20:30;99.07;;;91.20;;
2035;SDS011;23642;42.658;23.350;2022-12-29T02:29:41;98.70;;;90.70;;
2035;SDS011;23642;42.658;23.350;2022-12-29T02:32:27;97.23;;;89.80;;
2035;SDS011;23642;42.658;23.350;2022-12-29T02:35:01;98.30;;;90.80;;
2035;SDS011;23642;42.658;23.350;2022-12-29T02:37:37;98.83;;;90.60;;
2035;SDS011;23642;42.658;23.350;2022-12-29T02:40:13;97.90;;;90.30;;
2035;SDS011;23642;42.658;23.350;2022-12-29T02:42:49;99.40;;;91.37;;
2035;SDS011;23642;42.658;23.350;2022-12-29T02:45:20;99.10;;;91.33;;
2035;SDS011;23642;42.658;23.350;2022-12-29T02:47:53;98.17;;;90.90;;
2035;SDS011;23642;42.658;23.350;2022-12-29T02:50:25;99.97;;;92.27;;
2035;SDS011;23642;42.658;23.350;2022-12-29T02:52:58;96.57;;;88.97;;
2035;SDS011;23642;42.658;23.350;2022-12-29T02:55:27;100.37;;;92.00;;
2035;SDS011;23642;42.658;23.350;2022-12-29T03:00:46;99.27;;;91.40;;
2035;SDS011;23642;42.658;23.350;2022-12-29T03:03:23;98.83;;;91.13;;
2035;SDS011;23642;42.658;23.350;2022-12-29T03:06:06;101.80;;;93.60;;
2035;SDS011;23642;42.658;23.350;2022-12-29T03:08:44;99.93;;;91.90;;
2035;SDS011;23642;42.658;23.350;2022-12-29T03:11:17;100.17;;;91.70;;
2035;SDS011;23642;42.658;23.350;2022-12-29T03:14:02;102.40;;;93.63;;
2035;SDS011;23642;42.658;23.350;2022-12-29T03:16:53;100.90;;;92.70;;
2035;SDS011;23642;42.658;23.350;2022-12-29T03:19:25;99.23;;;91.23;;
2035;SDS011;23642;42.658;23.350;2022-12-29T03:21:56;103.00;;;94.40;;
2035;SDS011;23642;42.658;23.350;2022-12-29T03:24:43;102.97;;;94.60;;
2035;SDS011;23642;42.658;23.350;2022-12-29T03:27:15;101.03;;;93.10;;
2035;SDS011;23642;42.658;23.350;2022-12-29T03:29:46;99.50;;;91.67;;
2035;SDS011;23642;42.658;23.350;2022-12-29T03:32:20;101.60;;;93.40;;
2035;SDS011;23642;42.658;23.350;2022-12-29T03:34:50;102.27;;;94.07;;
2035;SDS011;23642;42.658;23.350;2022-12-29T03:37:20;102.33;;;94.13;;
2035;SDS011;23642;42.658;23.350;2022-12-29T03:39:50;99.70;;;91.53;;
2035;SDS011;23642;42.658;23.350;2022-12-29T03:42:17;101.00;;;92.57;;
2035;SDS011;23642;42.658;23.350;2022-12-29T03:44:47;103.03;;;95.00;;
2035;SDS011;23642;42.658;23.350;2022-12-29T03:47:14;101.03;;;92.90;;
2035;SDS011;23642;42.658;23.350;2022-12-29T03:49:42;102.17;;;93.97;;
2035;SDS011;23642;42.658;23.350;2022-12-29T03:52:13;104.03;;;95.50;;
2035;SDS011;23642;42.658;23.350;2022-12-29T03:54:44;102.07;;;93.63;;
2035;SDS011;23642;42.658;23.350;2022-12-29T03:57:15;100.50;;;92.30;;
2035;SDS011;23642;42.658;23.350;2022-12-29T03:59:46;98.63;;;90.50;;
2035;SDS011;23642;42.658;23.350;2022-12-29T04:02:24;101.10;;;92.60;;
2035;SDS011;23642;42.658;23.350;2022-12-29T04:04:51;94.13;;;85.63;;
2035;SDS011;23642;42.658;23.350;2022-12-29T04:07:19;98.70;;;90.27;;
2035;SDS011;23642;42.658;23.350;2022-12-29T04:09:46;93.17;;;85.87;;
2035;SDS011;23642;42.658;23.350;2022-12-29T04:12:13;95.33;;;87.30;;
2035;SDS011;23642;42.658;23.350;2022-12-29T04:14:40;95.70;;;88.10;;
2035;SDS011;23642;42.658;23.350;2022-12-29T04:17:06;95.33;;;87.87;;
2035;SDS011;23642;42.658;23.350;2022-12-29T04:19:33;93.90;;;86.27;;
2035;SDS011;23642;42.658;23.350;2022-12-29T04:22:00;94.70;;;86.87;;
2035;SDS011;23642;42.658;23.350;2022-12-29T04:24:28;94.83;;;87.20;;
2035;SDS011;23642;42.658;23.350;2022-12-29T04:26:55;96.07;;;88.47;;
2035;SDS011;23642;42.658;23.350;2022-12-29T04:29:21;95.40;;;87.53;;
2035;SDS011;23642;42.658;23.350;2022-12-29T04:31:48;96.60;;;89.00;;
2035;SDS011;23642;42.658;23.350;2022-12-29T04:34:15;95.30;;;87.70;;
2035;SDS011;23642;42.658;23.350;2022-12-29T04:36:42;95.90;;;88.03;;
2035;SDS011;23642;42.658;23.350;2022-12-29T04:39:09;96.37;;;88.63;;
2035;SDS011;23642;42.658;23.350;2022-12-29T04:41:37;95.53;;;87.65;;
2035;SDS011;23642;42.658;23.350;2022-12-29T04:44:04;96.17;;;88.00;;
2035;SDS011;23642;42.658;23.350;2022-12-29T04:46:30;96.60;;;88.77;;
2035;SDS011;23642;42.658;23.350;2022-12-29T04:48:57;95.70;;;88.03;;
2035;SDS011;23642;42.658;23.350;2022-12-29T04:51:25;95.33;;;87.17;;
2035;SDS011;23642;42.658;23.350;2022-12-29T04:53:52;95.47;;;87.37;;
2035;SDS011;23642;42.658;23.350;2022-12-29T04:56:18;97.28;;;89.40;;
2035;SDS011;23642;42.658;23.350;2022-12-29T04:58:47;95.80;;;87.60;;
2035;SDS011;23642;42.658;23.350;2022-12-29T05:01:13;94.70;;;86.80;;
2035;SDS011;23642;42.658;23.350;2022-12-29T05:03:40;95.47;;;87.40;;
2035;SDS011;23642;42.658;23.350;2022-12-29T05:06:07;96.60;;;88.70;;
2035;SDS011;23642;42.658;23.350;2022-12-29T05:08:34;96.40;;;88.43;;
2035;SDS011;23642;42.658;23.350;2022-12-29T05:11:01;97.43;;;88.67;;
2035;SDS011;23642;42.658;23.350;2022-12-29T05:13:27;95.90;;;87.93;;
2035;SDS011;23642;42.658;23.350;2022-12-29T05:15:55;101.03;;;92.07;;
2035;SDS011;23642;42.658;23.350;2022-12-29T05:18:22;101.33;;;92.37;;
2035;SDS011;23642;42.658;23.350;2022-12-29T05:20:49;100.63;;;91.67;;
2035;SDS011;23642;42.658;23.350;2022-12-29T05:23:16;99.37;;;89.47;;
2035;SDS011;23642;42.658;23.350;2022-12-29T05:25:42;98.87;;;89.73;;
2035;SDS011;23642;42.658;23.350;2022-12-29T05:28:11;95.47;;;87.27;;
2035;SDS011;23642;42.658;23.350;2022-12-29T05:30:38;97.80;;;89.43;;
2035;SDS011;23642;42.658;23.350;2022-12-29T05:33:06;99.17;;;90.60;;
2035;SDS011;23642;42.658;23.350;2022-12-29T05:35:36;100.67;;;90.77;;
2035;SDS011;23642;42.658;23.350;2022-12-29T05:38:03;99.97;;;91.30;;
2035;SDS011;23642;42.658;23.350;2022-12-29T05:40:29;100.97;;;92.17;;
2035;SDS011;23642;42.658;23.350;2022-12-29T05:42:56;104.07;;;94.97;;
2035;SDS011;23642;42.658;23.350;2022-12-29T05:45:23;103.47;;;95.03;;
2035;SDS011;23642;42.658;23.350;2022-12-29T05:47:50;105.33;;;96.17;;
2035;SDS011;23642;42.658;23.350;2022-12-29T05:50:18;108.03;;;98.57;;
2035;SDS011;23642;42.658;23.350;2022-12-29T05:52:45;107.83;;;98.13;;
2035;SDS011;23642;42.658;23.350;2022-12-29T05:55:12;106.17;;;96.97;;
2035;SDS011;23642;42.658;23.350;2022-12-29T05:57:38;106.20;;;97.17;;
2035;SDS011;23642;42.658;23.350;2022-12-29T06:00:06;107.37;;;96.97;;
2035;SDS011;23642;42.658;23.350;2022-12-29T06:02:33;103.83;;;94.60;;
2035;SDS011;23642;42.658;23.350;2022-12-29T06:05:00;105.63;;;96.47;;
2035;SDS011;23642;42.658;23.350;2022-12-29T06:07:28;107.70;;;98.17;;
2035;SDS011;23642;42.658;23.350;2022-12-29T06:09:55;105.70;;;97.00;;
2035;SDS011;23642;42.658;23.350;2022-12-29T06:12:22;107.77;;;97.97;;
2035;SDS011;23642;42.658;23.350;2022-12-29T06:14:48;107.13;;;97.77;;
2035;SDS011;23642;42.658;23.350;2022-12-29T06:17:15;107.17;;;97.80;;
2035;SDS011;23642;42.658;23.350;2022-12-29T06:19:42;109.67;;;100.37;;
2035;SDS011;23642;42.658;23.350;2022-12-29T06:22:09;109.90;;;100.50;;
2035;SDS011;23642;42.658;23.350;2022-12-29T06:24:38;107.00;;;98.13;;
2035;SDS011;23642;42.658;23.350;2022-12-29T06:27:05;109.90;;;100.50;;
2035;SDS011;23642;42.658;23.350;2022-12-29T06:29:32;109.00;;;99.90;;
2035;SDS011;23642;42.658;23.350;2022-12-29T06:32:01;108.80;;;100.10;;
2035;SDS011;23642;42.658;23.350;2022-12-29T06:34:28;110.80;;;101.43;;
2035;SDS011;23642;42.658;23.350;2022-12-29T06:36:55;110.77;;;101.10;;
2035;SDS011;23642;42.658;23.350;2022-12-29T06:39:21;110.77;;;101.33;;
2035;SDS011;23642;42.658;23.350;2022-12-29T06:41:49;109.77;;;99.90;;
2035;SDS011;23642;42.658;23.350;2022-12-29T06:44:18;111.37;;;101.70;;
2035;SDS011;23642;42.658;23.350;2022-12-29T06:46:45;114.30;;;104.43;;
2035;SDS011;23642;42.658;23.350;2022-12-29T06:49:12;115.30;;;104.80;;
2035;SDS011;23642;42.658;23.350;2022-12-29T06:51:39;116.83;;;107.03;;
2035;SDS011;23642;42.658;23.350;2022-12-29T06:54:05;113.87;;;104.17;;
2035;SDS011;23642;42.658;23.350;2022-12-29T06:56:32;117.00;;;107.33;;
2035;SDS011;23642;42.658;23.350;2022-12-29T06:59:00;113.17;;;103.80;;
2035;SDS011;23642;42.658;23.350;2022-12-29T07:01:27;111.73;;;102.33;;
2035;SDS011;23642;42.658;23.350;2022-12-29T07:03:54;113.10;;;103.60;;
2035;SDS011;23642;42.658;23.350;2022-12-29T07:06:21;112.63;;;103.63;;
2035;SDS011;23642;42.658;23.350;2022-12-29T07:08:48;112.87;;;103.87;;
2035;SDS011;23642;42.658;23.350;2022-12-29T07:11:14;115.30;;;105.80;;
2035;SDS011;23642;42.658;23.350;2022-12-29T07:13:41;114.93;;;105.43;;
2035;SDS011;23642;42.658;23.350;2022-12-29T07:16:09;115.03;;;105.47;;
2035;SDS011;23642;42.658;23.350;2022-12-29T07:18:36;118.20;;;108.20;;
2035;SDS011;23642;42.658;23.350;2022-12-29T07:21:06;116.57;;;107.13;;
2035;SDS011;23642;42.658;23.350;2022-12-29T07:23:42;115.37;;;106.13;;
2035;SDS011;23642;42.658;23.350;2022-12-29T07:26:10;112.97;;;103.73;;
2035;SDS011;23642;42.658;23.350;2022-12-29T07:28:38;117.50;;;108.03;;
2035;SDS011;23642;42.658;23.350;2022-12-29T07:31:08;118.57;;;108.87;;
2035;SDS011;23642;42.658;23.350;2022-12-29T07:33:41;119.17;;;109.60;;
2035;SDS011;23642;42.658;23.350;2022-12-29T07:36:09;119.00;;;108.90;;
2035;SDS011;23642;42.658;23.350;2022-12-29T07:38:36;116.53;;;107.40;;
2035;SDS011;23642;42.658;23.350;2022-12-29T07:41:03;118.43;;;109.00;;
2035;SDS011;23642;42.658;23.350;2022-12-29T07:43:30;117.03;;;108.03;;
2035;SDS011;23642;42.658;23.350;2022-12-29T07:45:57;118.90;;;109.67;;
2035;SDS011;23642;42.658;23.350;2022-12-29T07:48:25;121.27;;;111.37;;
2035;SDS011;23642;42.658;23.350;2022-12-29T07:50:52;119.77;;;109.80;;
2035;SDS011;23642;42.658;23.350;2022-12-29T07:53:19;117.93;;;107.93;;
2035;SDS011;23642;42.658;23.350;2022-12-29T07:55:47;120.73;;;111.10;;
2035;SDS011;23642;42.658;23.350;2022-12-29T07:58:14;120.53;;;110.93;;
2035;SDS011;23642;42.658;23.350;2022-12-29T08:00:41;122.40;;;111.97;;
2035;SDS011;23642;42.658;23.350;2022-12-29T08:03:07;120.00;;;110.40;;
2035;SDS011;23642;42.658;23.350;2022-12-29T08:05:35;119.30;;;110.03;;
2035;SDS011;23642;42.658;23.350;2022-12-29T08:08:02;119.60;;;109.90;;
2035;SDS011;23642;42.658;23.350;2022-12-29T08:10:29;120.07;;;109.87;;
2035;SDS011;23642;42.658;23.350;2022-12-29T08:12:56;120.20;;;110.30;;
2035;SDS011;23642;42.658;23.350;2022-12-29T08:15:23;122.10;;;111.93;;
2035;SDS011;23642;42.658;23.350;2022-12-29T08:17:50;121.37;;;111.57;;
2035;SDS011;23642;42.658;23.350;2022-12-29T08:20:17;118.13;;;108.93;;
2035;SDS011;23642;42.658;23.350;2022-12-29T08:22:45;122.93;;;113.23;;
2035;SDS011;23642;42.658;23.350;2022-12-29T08:25:12;121.73;;;112.17;;
2035;SDS011;23642;42.658;23.350;2022-12-29T08:27:39;118.70;;;109.20;;
2035;SDS011;23642;42.658;23.350;2022-12-29T08:30:06;120.00;;;110.50;;
2035;SDS011;23642;42.658;23.350;2022-12-29T08:32:33;118.97;;;109.47;;
2035;SDS011;23642;42.658;23.350;2022-12-29T08:35:00;123.43;;;113.50;;
2035;SDS011;23642;42.658;23.350;2022-12-29T08:37:27;126.57;;;115.77;;
2035;SDS011;23642;42.658;23.350;2022-12-29T08:39:55;121.37;;;111.73;;
2035;SDS011;23642;42.658;23.350;2022-12-29T08:42:23;123.70;;;113.90;;
2035;SDS011;23642;42.658;23.350;2022-12-29T08:44:55;119.00;;;109.27;;
2035;SDS011;23642;42.658;23.350;2022-12-29T08:47:22;121.57;;;111.50;;
2035;SDS011;23642;42.658;23.350;2022-12-29T08:49:49;119.60;;;110.20;;
2035;SDS011;23642;42.658;23.350;2022-12-29T08:52:16;121.43;;;111.63;;
2035;SDS011;23642;42.658;23.350;2022-12-29T08:54:42;123.67;;;113.37;;
2035;SDS011;23642;42.658;23.350;2022-12-29T08:57:11;124.63;;;114.53;;
2035;SDS011;23642;42.658;23.350;2022-12-29T08:59:37;123.23;;;113.57;;
2035;SDS011;23642;42.658;23.350;2022-12-29T09:02:04;125.73;;;115.10;;
2035;SDS011;23642;42.658;23.350;2022-12-29T09:04:31;127.70;;;116.63;;
2035;SDS011;23642;42.658;23.350;2022-12-29T09:06:58;124.00;;;113.87;;
2035;SDS011;23642;42.658;23.350;2022-12-29T09:09:25;121.07;;;111.13;;
2035;SDS011;23642;42.658;23.350;2022-12-29T09:11:52;123.30;;;112.90;;
2035;SDS011;23642;42.658;23.350;2022-12-29T09:14:20;122.17;;;111.87;;
2035;SDS011;23642;42.658;23.350;2022-12-29T09:16:46;123.57;;;113.50;;
2035;SDS011;23642;42.658;23.350;2022-12-29T09:19:30;123.60;;;113.33;;
2035;SDS011;23642;42.658;23.350;2022-12-29T09:21:57;124.57;;;113.97;;
2035;SDS011;23642;42.658;23.350;2022-12-29T09:24:24;123.77;;;113.33;;
2035;SDS011;23642;42.658;23.350;2022-12-29T09:26:51;122.27;;;112.27;;
2035;SDS011;23642;42.658;23.350;2022-12-29T09:29:17;121.90;;;112.63;;
2035;SDS011;23642;42.658;23.350;2022-12-29T09:31:45;123.73;;;114.00;;
2035;SDS011;23642;42.658;23.350;2022-12-29T09:34:12;122.30;;;111.47;;
2035;SDS011;23642;42.658;23.350;2022-12-29T09:36:39;119.57;;;110.17;;
2035;SDS011;23642;42.658;23.350;2022-12-29T09:39:05;118.87;;;109.43;;
2035;SDS011;23642;42.658;23.350;2022-12-29T09:41:34;123.33;;;113.60;;
2035;SDS011;23642;42.658;23.350;2022-12-29T09:44:06;123.07;;;113.20;;
2035;SDS011;23642;42.658;23.350;2022-12-29T09:46:40;123.60;;;113.43;;
2035;SDS011;23642;42.658;23.350;2022-12-29T09:49:15;120.77;;;110.70;;
2035;SDS011;23642;42.658;23.350;2022-12-29T09:51:51;121.83;;;112.53;;
2035;SDS011;23642;42.658;23.350;2022-12-29T09:54:23;122.10;;;112.87;;
2035;SDS011;23642;42.658;23.350;2022-12-29T09:56:57;119.80;;;109.93;;
2035;SDS011;23642;42.658;23.350;2022-12-29T09:59:26;120.83;;;110.73;;
2035;SDS011;23642;42.658;23.350;2022-12-29T10:02:04;120.37;;;110.33;;
2035;SDS011;23642;42.658;23.350;2022-12-29T10:04:40;122.80;;;113.00;;
2035;SDS011;23642;42.658;23.350;2022-12-29T10:07:09;117.43;;;108.10;;
2035;SDS011;23642;42.658;23.350;2022-12-29T10:09:40;118.23;;;109.20;;
2035;SDS011;23642;42.658;23.350;2022-12-29T10:12:17;122.10;;;112.40;;
2035;SDS011;23642;42.658;23.350;2022-12-29T10:14:54;122.70;;;112.87;;
2035;SDS011;23642;42.658;23.350;2022-12-29T10:17:30;124.20;;;113.80;;
2035;SDS011;23642;42.658;23.350;2022-12-29T10:20:12;119.93;;;110.33;;
2035;SDS011;23642;42.658;23.350;2022-12-29T10:22:54;118.13;;;108.83;;
2035;SDS011;23642;42.658;23.350;2022-12-29T10:25:32;120.00;;;110.33;;
2035;SDS011;23642;42.658;23.350;2022-12-29T10:28:05;124.73;;;112.40;;
2035;SDS011;23642;42.658;23.350;2022-12-29T10:30:41;124.73;;;113.97;;
2035;SDS011;23642;42.658;23.350;2022-12-29T10:33:13;125.13;;;115.20;;
2035;SDS011;23642;42.658;23.350;2022-12-29T10:35:46;122.47;;;112.70;;
2035;SDS011;23642;42.658;23.350;2022-12-29T10:38:20;127.03;;;116.43;;
2035;SDS011;23642;42.658;23.350;2022-12-29T10:40:53;127.63;;;117.57;;
2035;SDS011;23642;42.658;23.350;2022-12-29T10:43:26;125.73;;;115.87;;
2035;SDS011;23642;42.658;23.350;2022-12-29T10:45:54;125.90;;;115.33;;
2035;SDS011;23642;42.658;23.350;2022-12-29T10:48:24;126.80;;;116.40;;
2035;SDS011;23642;42.658;23.350;2022-12-29T10:50:57;124.63;;;114.60;;
2035;SDS011;23642;42.658;23.350;2022-12-29T10:53:30;129.90;;;119.33;;
2035;SDS011;23642;42.658;23.350;2022-12-29T10:56:01;126.73;;;116.93;;
2035;SDS011;23642;42.658;23.350;2022-12-29T10:58:30;125.80;;;115.87;;
2035;SDS011;23642;42.658;23.350;2022-12-29T11:00:57;126.57;;;116.73;;
2035;SDS011;23642;42.658;23.350;2022-12-29T11:03:46;126.50;;;116.40;;
2035;SDS011;23642;42.658;23.350;2022-12-29T11:06:27;131.33;;;120.13;;
2035;SDS011;23642;42.658;23.350;2022-12-29T11:08:56;129.53;;;118.53;;
2035;SDS011;23642;42.658;23.350;2022-12-29T11:11:25;127.30;;;116.73;;
2035;SDS011;23642;42.658;23.350;2022-12-29T11:13:57;129.03;;;118.90;;
2035;SDS011;23642;42.658;23.350;2022-12-29T11:16:28;131.17;;;119.27;;
2035;SDS011;23642;42.658;23.350;2022-12-29T11:18:57;126.77;;;116.57;;
2035;SDS011;23642;42.658;23.350;2022-12-29T11:21:26;125.73;;;115.40;;
2035;SDS011;23642;42.658;23.350;2022-12-29T11:23:58;131.40;;;120.57;;
2035;SDS011;23642;42.658;23.350;2022-12-29T11:26:27;131.87;;;120.47;;
2035;SDS011;23642;42.658;23.350;2022-12-29T11:29:16;126.30;;;115.90;;
2035;SDS011;23642;42.658;23.350;2022-12-29T11:31:48;126.93;;;116.77;;
2035;SDS011;23642;42.658;23.350;2022-12-29T11:34:17;130.83;;;120.20;;
2035;SDS011;23642;42.658;23.350;2022-12-29T11:36:46;123.90;;;114.00;;
2035;SDS011;23642;42.658;23.350;2022-12-29T11:42:03;128.13;;;118.40;;
2035;SDS011;23642;42.658;23.350;2022-12-29T11:44:41;125.80;;;115.60;;
2035;SDS011;23642;42.658;23.350;2022-12-29T11:47:12;128.70;;;118.10;;
2035;SDS011;23642;42.658;23.350;2022-12-29T11:49:49;128.17;;;117.97;;
2035;SDS011;23642;42.658;23.350;2022-12-29T11:52:23;132.27;;;119.90;;
2035;SDS011;23642;42.658;23.350;2022-12-29T11:54:56;122.60;;;112.77;;
2035;SDS011;23642;42.658;23.350;2022-12-29T11:57:23;125.70;;;115.57;;
2035;SDS011;23642;42.658;23.350;2022-12-29T11:59:54;123.83;;;114.10;;
2035;SDS011;23642;42.658;23.350;2022-12-29T12:02:27;126.10;;;115.70;;
2035;SDS011;23642;42.658;23.350;2022-12-29T12:05:01;123.03;;;112.87;;
2035;SDS011;23642;42.658;23.350;2022-12-29T12:07:41;123.33;;;113.07;;
2035;SDS011;23642;42.658;23.350;2022-12-29T12:10:12;126.00;;;116.20;;
2035;SDS011;23642;42.658;23.350;2022-12-29T12:12:48;121.30;;;112.00;;
2035;SDS011;23642;42.658;23.350;2022-12-29T12:15:22;125.60;;;115.37;;
2035;SDS011;23642;42.658;23.350;2022-12-29T12:17:54;122.97;;;113.37;;
2035;SDS011;23642;42.658;23.350;2022-12-29T12:20:31;124.03;;;113.33;;
2035;SDS011;23642;42.658;23.350;2022-12-29T12:23:12;123.30;;;113.77;;
2035;SDS011;23642;42.658;23.350;2022-12-29T12:25:55;123.77;;;114.20;;
2035;SDS011;23642;42.658;23.350;2022-12-29T12:28:28;123.60;;;113.97;;
2035;SDS011;23642;42.658;23.350;2022-12-29T12:31:04;122.27;;;112.67;;
2035;SDS011;23642;42.658;23.350;2022-12-29T12:33:38;124.20;;;113.90;;
2035;SDS011;23642;42.658;23.350;2022-12-29T12:36:14;124.37;;;115.17;;
2035;SDS011;23642;42.658;23.350;2022-12-29T12:38:53;124.70;;;114.80;;
2035;SDS011;23642;42.658;23.350;2022-12-29T12:41:29;126.43;;;116.03;;
2035;SDS011;23642;42.658;23.350;2022-12-29T12:44:09;125.57;;;115.60;;
2035;SDS011;23642;42.658;23.350;2022-12-29T12:46:52;122.10;;;112.30;;
2035;SDS011;23642;42.658;23.350;2022-12-29T12:49:47;121.07;;;111.53;;
2035;SDS011;23642;42.658;23.350;2022-12-29T12:52:53;124.07;;;114.57;;
2035;SDS011;23642;42.658;23.350;2022-12-29T12:55:41;123.63;;;113.50;;
2035;SDS011;23642;42.658;23.350;2022-12-29T12:58:21;119.50;;;110.20;;
2035;SDS011;23642;42.658;23.350;2022-12-29T13:01:03;124.53;;;114.53;;
2035;SDS011;23642;42.658;23.350;2022-12-29T13:03:45;123.47;;;113.70;;
2035;SDS011;23642;42.658;23.350;2022-12-29T13:06:22;130.03;;;118.67;;
2035;SDS011;23642;42.658;23.350;2022-12-29T13:09:12;124.70;;;114.90;;
2035;SDS011;23642;42.658;23.350;2022-12-29T13:12:01;125.07;;;114.97;;
2035;SDS011;23642;42.658;23.350;2022-12-29T13:14:37;128.50;;;118.00;;
2035;SDS011;23642;42.658;23.350;2022-12-29T13:17:48;124.30;;;114.40;;
2035;SDS011;23642;42.658;23.350;2022-12-29T13:20:12;126.77;;;116.87;;
2035;SDS011;23642;42.658;23.350;2022-12-29T13:22:54;128.03;;;117.37;;
2035;SDS011;23642;42.658;23.350;2022-12-29T13:25:28;126.73;;;116.27;;
2035;SDS011;23642;42.658;23.350;2022-12-29T13:28:06;127.73;;;117.83;;
2035;SDS011;23642;42.658;23.350;2022-12-29T13:30:43;129.07;;;118.63;;
2035;SDS011;23642;42.658;23.350;2022-12-29T13:33:19;127.57;;;117.33;;
2035;SDS011;23642;42.658;23.350;2022-12-29T13:35:53;125.53;;;115.53;;
2035;SDS011;23642;42.658;23.350;2022-12-29T13:38:29;125.10;;;114.93;;
2035;SDS011;23642;42.658;23.350;2022-12-29T13:41:00;127.13;;;116.63;;
2035;SDS011;23642;42.658;23.350;2022-12-29T13:43:32;123.30;;;113.50;;
2035;SDS011;23642;42.658;23.350;2022-12-29T13:46:04;125.60;;;115.90;;
2035;SDS011;23642;42.658;23.350;2022-12-29T13:48:35;127.30;;;116.20;;
2035;SDS011;23642;42.658;23.350;2022-12-29T13:51:06;130.47;;;119.57;;
2035;SDS011;23642;42.658;23.350;2022-12-29T13:53:37;127.70;;;117.00;;
2035;SDS011;23642;42.658;23.350;2022-12-29T13:56:16;127.80;;;116.50;;
2035;SDS011;23642;42.658;23.350;2022-12-29T13:58:53;126.83;;;116.87;;
2035;SDS011;23642;42.658;23.350;2022-12-29T14:01:24;128.07;;;117.20;;
2035;SDS011;23642;42.658;23.350;2022-12-29T14:03:56;127.93;;;116.20;;
2035;SDS011;23642;42.658;23.350;2022-12-29T14:06:25;123.70;;;113.17;;
2035;SDS011;23642;42.658;23.350;2022-12-29T14:08:54;125.23;;;115.33;;
2035;SDS011;23642;42.658;23.350;2022-12-29T14:11:28;128.60;;;118.10;;
2035;SDS011;23642;42.658;23.350;2022-12-29T14:13:58;124.60;;;114.53;;
2035;SDS011;23642;42.658;23.350;2022-12-29T14:16:37;128.00;;;116.37;;
2035;SDS011;23642;42.658;23.350;2022-12-29T14:19:11;127.30;;;116.80;;
2035;SDS011;23642;42.658;23.350;2022-12-29T14:21:44;125.13;;;115.13;;
2035;SDS011;23642;42.658;23.350;2022-12-29T14:33:18;122.87;;;112.87;;
2035;SDS011;23642;42.658;23.350;2022-12-29T14:35:47;124.30;;;114.07;;
2035;SDS011;23642;42.658;23.350;2022-12-29T14:38:21;124.03;;;113.67;;
2035;SDS011;23642;42.658;23.350;2022-12-29T14:40:50;123.97;;;114.00;;
2035;SDS011;23642;42.658;23.350;2022-12-29T14:43:19;124.90;;;114.13;;
2035;SDS011;23642;42.658;23.350;2022-12-29T14:45:57;124.87;;;114.70;;
2035;SDS011;23642;42.658;23.350;2022-12-29T14:48:28;126.43;;;116.03;;